createdAt,value
2022-11-03T00:01:36.236Z,100.00
2022-11-03T00:04:04.537Z,100.00
2022-11-03T00:06:32.794Z,100.00
2022-11-03T00:09:01.334Z,100.00
2022-11-03T00:11:30.115Z,100.00
2022-11-03T00:13:59.663Z,100.00
2022-11-03T00:16:28.083Z,100.00
2022-11-03T00:18:56.723Z,100.00
2022-11-03T00:21:25.014Z,100.00
2022-11-03T00:23:53.267Z,100.00
2022-11-03T00:26:22.626Z,100.00
2022-11-03T00:28:52.480Z,100.00
2022-11-03T00:31:23.403Z,100.00
2022-11-03T00:33:51.642Z,100.00
2022-11-03T00:36:21.602Z,100.00
2022-11-03T00:38:49.982Z,100.00
2022-11-03T00:41:20.487Z,100.00
2022-11-03T00:43:49.365Z,100.00
2022-11-03T00:46:18.033Z,100.00
2022-11-03T00:48:47.633Z,100.00
2022-11-03T00:51:17.179Z,100.00
2022-11-03T00:53:47.554Z,100.00
2022-11-03T00:56:17.141Z,100.00
2022-11-03T00:58:45.794Z,100.00
2022-11-03T01:01:16.142Z,100.00
2022-11-03T01:04:08.224Z,100.00
2022-11-03T01:06:53.896Z,100.00
2022-11-03T01:09:24.004Z,100.00
2022-11-03T01:11:57.562Z,100.00
2022-11-03T01:14:26.903Z,100.00
2022-11-03T01:16:55.405Z,100.00
2022-11-03T01:19:25.542Z,100.00
2022-11-03T01:21:53.975Z,100.00
2022-11-03T01:24:22.526Z,100.00
2022-11-03T01:26:50.727Z,100.00
2022-11-03T01:29:19.253Z,100.00
2022-11-03T01:31:47.634Z,100.00
2022-11-03T01:34:17.364Z,100.00
2022-11-03T01:36:47.236Z,100.00
2022-11-03T01:39:16.426Z,100.00
2022-11-03T01:41:46.944Z,100.00
2022-11-03T01:44:32.700Z,100.00
2022-11-03T01:47:12.708Z,100.00
2022-11-03T01:49:45.538Z,100.00
2022-11-03T01:52:19.117Z,100.00
2022-11-03T01:54:50.297Z,100.00
2022-11-03T01:57:22.658Z,100.00
2022-11-03T01:59:51.278Z,100.00
2022-11-03T02:02:19.798Z,100.00
2022-11-03T02:04:48.375Z,100.00
2022-11-03T02:07:22.698Z,100.00
2022-11-03T02:09:50.966Z,100.00
2022-11-03T02:12:23.786Z,100.00
2022-11-03T02:14:54.996Z,100.00
2022-11-03T02:17:24.096Z,100.00
2022-11-03T02:19:54.239Z,100.00
2022-11-03T02:22:57.773Z,100.00
2022-11-03T02:25:36.840Z,100.00
2022-11-03T02:28:06.385Z,100.00
2022-11-03T02:30:38.057Z,100.00
2022-11-03T02:33:12.666Z,100.00
2022-11-03T02:35:44.607Z,100.00
2022-11-03T02:38:15.678Z,100.00
2022-11-03T02:40:49.555Z,100.00
2022-11-03T02:43:20.516Z,100.00
2022-11-03T02:45:49.696Z,100.00
2022-11-03T02:48:19.777Z,100.00
2022-11-03T02:50:49.041Z,100.00
2022-11-03T02:53:17.501Z,100.00
2022-11-03T02:55:54.197Z,100.00
2022-11-03T02:58:26.578Z,100.00
2022-11-03T03:00:57.135Z,100.00
2022-11-03T03:03:28.124Z,100.00
2022-11-03T03:05:59.925Z,100.00
2022-11-03T03:08:28.815Z,100.00
2022-11-03T03:11:00.504Z,100.00
2022-11-03T03:13:29.165Z,100.00
2022-11-03T03:16:07.197Z,100.00
2022-11-03T03:18:43.922Z,100.00
2022-11-03T03:21:15.039Z,100.00
2022-11-03T03:23:49.907Z,100.00
2022-11-03T03:26:23.325Z,100.00
2022-11-03T03:28:55.233Z,100.00
2022-11-03T03:31:24.107Z,100.00
2022-11-03T03:33:59.792Z,100.00
2022-11-03T03:36:40.185Z,100.00
2022-11-03T03:39:09.994Z,100.00
2022-11-03T03:41:39.865Z,100.00
2022-11-03T03:44:10.476Z,100.00
2022-11-03T03:46:40.906Z,100.00
2022-11-03T03:49:09.268Z,100.00
2022-11-03T03:51:38.375Z,100.00
2022-11-03T03:54:06.685Z,100.00
2022-11-03T03:56:38.514Z,100.00
2022-11-03T03:59:08.714Z,100.00
2022-11-03T04:01:36.947Z,100.00
2022-11-03T04:04:05.587Z,100.00
2022-11-03T04:06:33.938Z,100.00
2022-11-03T04:09:02.056Z,100.00
2022-11-03T04:11:47.705Z,100.00
2022-11-03T04:14:34.955Z,100.00
2022-11-03T04:17:20.594Z,100.00
2022-11-03T04:20:06.075Z,100.00
2022-11-03T04:22:35.297Z,100.00
2022-11-03T04:25:03.532Z,100.00
2022-11-03T04:27:33.524Z,100.00
2022-11-03T04:30:08.637Z,100.00
2022-11-03T04:32:37.148Z,100.00
2022-11-03T04:35:12.606Z,100.00
2022-11-03T04:37:45.007Z,100.00
2022-11-03T04:40:17.655Z,100.00
2022-11-03T04:42:46.194Z,100.00
2022-11-03T04:45:24.294Z,100.00
2022-11-03T04:47:53.702Z,100.00
2022-11-03T04:50:23.864Z,100.00
2022-11-03T04:52:56.655Z,100.00
2022-11-03T04:55:24.926Z,100.00
2022-11-03T04:57:56.636Z,100.00
2022-11-03T05:00:26.382Z,100.00
2022-11-03T05:02:56.217Z,100.00
2022-11-03T05:05:26.761Z,100.00
2022-11-03T05:07:56.045Z,100.00
2022-11-03T05:10:26.477Z,100.00
2022-11-03T05:12:55.833Z,100.00
2022-11-03T05:15:31.777Z,100.00
2022-11-03T05:18:01.606Z,100.00
2022-11-03T05:20:36.159Z,100.00
2022-11-03T05:23:06.098Z,100.00
2022-11-03T05:25:41.090Z,100.00
2022-11-03T05:28:21.786Z,100.00
2022-11-03T05:30:52.644Z,100.00
2022-11-03T05:33:24.154Z,100.00
2022-11-03T05:35:52.685Z,100.00
2022-11-03T05:38:22.528Z,100.00
2022-11-03T05:40:54.354Z,100.00
2022-11-03T05:43:22.895Z,100.00
2022-11-03T05:45:55.124Z,100.00
2022-11-03T05:48:31.015Z,100.00
2022-11-03T05:51:00.642Z,100.00
2022-11-03T05:53:31.487Z,100.00
2022-11-03T05:56:02.457Z,100.00
2022-11-03T05:58:32.855Z,100.00
2022-11-03T06:01:07.034Z,100.00
2022-11-03T06:03:37.710Z,100.00
2022-11-03T06:06:14.887Z,100.00
2022-11-03T06:08:46.005Z,100.00
2022-11-03T06:11:23.464Z,100.00
2022-11-03T06:13:51.599Z,100.00
2022-11-03T06:16:34.146Z,100.00
2022-11-03T06:19:03.326Z,100.00
2022-11-03T06:21:32.208Z,100.00
2022-11-03T06:24:00.764Z,100.00
2022-11-03T06:26:29.273Z,100.00
2022-11-03T06:28:57.500Z,100.00
2022-11-03T06:31:30.336Z,100.00
2022-11-03T06:33:59.307Z,100.00
2022-11-03T06:36:29.654Z,100.00
2022-11-03T06:38:59.386Z,100.00
2022-11-03T06:41:29.613Z,100.00
2022-11-03T06:43:57.876Z,100.00
2022-11-03T06:46:28.035Z,100.00
2022-11-03T06:49:00.106Z,100.00
2022-11-03T06:51:30.029Z,100.00
2022-11-03T06:54:00.225Z,100.00
2022-11-03T06:56:31.704Z,100.00
2022-11-03T06:59:00.487Z,100.00
2022-11-03T07:01:32.793Z,100.00
2022-11-03T07:04:03.137Z,100.00
2022-11-03T07:06:33.944Z,100.00
2022-11-03T07:09:05.022Z,100.00
2022-11-03T07:11:36.444Z,100.00
2022-11-03T07:14:12.724Z,100.00
2022-11-03T07:16:44.754Z,100.00
2022-11-03T07:19:16.486Z,100.00
2022-11-03T07:21:47.293Z,100.00
2022-11-03T07:24:19.853Z,100.00
2022-11-03T07:26:48.245Z,100.00
2022-11-03T07:29:20.374Z,100.00
2022-11-03T07:31:51.643Z,100.00
2022-11-03T07:34:22.865Z,100.00
2022-11-03T07:36:55.758Z,100.00
2022-11-03T07:39:24.590Z,100.00
2022-11-03T07:41:53.157Z,100.00
2022-11-03T07:44:21.974Z,100.00
2022-11-03T07:46:52.359Z,100.00
2022-11-03T07:49:28.835Z,100.00
2022-11-03T07:51:58.359Z,100.00
2022-11-03T07:54:30.695Z,100.00
2022-11-03T07:57:00.561Z,100.00
2022-11-03T07:59:30.837Z,100.00
2022-11-03T08:02:00.931Z,100.00
2022-11-03T08:04:31.024Z,100.00
2022-11-03T08:06:59.265Z,100.00
2022-11-03T08:09:27.474Z,100.00
2022-11-03T08:11:55.634Z,100.00
2022-11-03T08:14:23.835Z,100.00
2022-11-03T08:16:51.955Z,100.00
2022-11-03T08:19:21.513Z,100.00
2022-11-03T08:21:50.021Z,100.00
2022-11-03T08:24:18.184Z,100.00
2022-11-03T08:26:46.426Z,100.00
2022-11-03T08:29:14.736Z,100.00
2022-11-03T08:31:42.917Z,100.00
2022-11-03T08:34:11.085Z,100.00
2022-11-03T08:36:40.733Z,100.00
2022-11-03T08:39:08.915Z,100.00
2022-11-03T08:41:37.095Z,100.00
2022-11-03T08:44:05.701Z,100.00
2022-11-03T08:46:33.934Z,100.00
2022-11-03T08:49:02.776Z,100.00
2022-11-03T08:51:30.956Z,100.00
2022-11-03T08:54:00.484Z,100.00
2022-11-03T08:56:28.664Z,100.00
2022-11-03T08:58:56.855Z,100.00
2022-11-03T09:01:25.050Z,100.00
2022-11-03T09:03:53.872Z,100.00
2022-11-03T09:06:22.084Z,100.00
2022-11-03T09:11:40.222Z,100.00
2022-11-03T09:14:08.414Z,100.00
2022-11-03T09:16:36.596Z,100.00
2022-11-03T09:19:04.795Z,100.00
2022-11-03T09:21:32.913Z,100.00
2022-11-03T09:24:01.134Z,100.00
2022-11-03T09:26:29.554Z,100.00
2022-11-03T09:28:59.078Z,100.00
2022-11-03T09:31:28.695Z,100.00
2022-11-03T09:33:57.332Z,100.00
2022-11-03T09:36:25.635Z,100.00
2022-11-03T09:38:53.815Z,100.00
2022-11-03T09:41:27.850Z,100.00
2022-11-03T09:44:04.913Z,100.00
2022-11-03T09:46:33.395Z,100.00
2022-11-03T09:49:01.525Z,100.00
2022-11-03T09:51:29.995Z,100.00
2022-11-03T09:53:59.734Z,100.00
2022-11-03T09:56:28.192Z,100.00
2022-11-03T09:58:56.366Z,100.00
2022-11-03T10:01:26.427Z,100.00
2022-11-03T10:03:57.638Z,100.00
2022-11-03T10:06:25.793Z,100.00
2022-11-03T10:08:54.225Z,100.00
2022-11-03T10:11:22.363Z,100.00
2022-11-03T10:13:53.434Z,100.00
2022-11-03T10:16:23.424Z,100.00
2022-11-03T10:18:53.755Z,100.00
2022-11-03T10:21:24.826Z,100.00
2022-11-03T10:23:53.032Z,100.00
2022-11-03T10:26:23.396Z,100.00
2022-11-03T10:29:04.036Z,100.00
2022-11-03T10:31:36.856Z,100.00
2022-11-03T10:34:07.007Z,100.00
2022-11-03T10:36:35.687Z,100.00
2022-11-03T10:39:25.354Z,100.00
2022-11-03T10:41:57.856Z,100.00
2022-11-03T10:44:28.485Z,100.00
2022-11-03T10:47:00.597Z,98.88
2022-11-03T10:49:31.518Z,96.94
2022-11-03T10:52:07.815Z,97.56
2022-11-03T10:54:38.136Z,98.10
2022-11-03T10:57:06.555Z,97.90
2022-11-03T10:59:37.744Z,96.60
2022-11-03T11:02:16.332Z,96.77
2022-11-03T11:04:47.296Z,96.47
2022-11-03T11:07:21.714Z,98.79
2022-11-03T11:09:49.993Z,99.13
2022-11-03T11:12:19.499Z,99.59
2022-11-03T11:14:55.984Z,99.32
2022-11-03T11:17:47.837Z,100.00
2022-11-03T11:20:41.683Z,100.00
2022-11-03T11:23:49.175Z,100.00
2022-11-03T11:26:41.393Z,97.76
2022-11-03T11:29:43.281Z,98.05
2022-11-03T11:32:48.439Z,98.42
2022-11-03T11:36:04.347Z,98.62
2022-11-03T11:39:09.491Z,98.42
2022-11-03T11:42:13.540Z,97.75
2022-11-03T11:44:59.358Z,97.02
2022-11-03T11:47:49.216Z,96.15
2022-11-03T11:50:32.785Z,95.64
2022-11-03T11:53:11.424Z,96.15
2022-11-03T11:55:47.066Z,95.79
2022-11-03T11:58:39.429Z,92.95
2022-11-03T12:01:23.830Z,93.18
2022-11-03T12:03:53.578Z,92.27
2022-11-03T12:06:34.679Z,91.26
2022-11-03T12:09:07.441Z,92.89
2022-11-03T12:11:46.009Z,92.12
2022-11-03T12:14:25.808Z,90.76
2022-11-03T12:16:54.228Z,89.65
2022-11-03T12:19:42.104Z,89.10
2022-11-03T12:22:11.484Z,89.69
2022-11-03T12:24:50.881Z,88.27
2022-11-03T12:27:36.897Z,87.97
2022-11-03T12:30:08.836Z,85.83
2022-11-03T12:32:36.976Z,86.14
2022-11-03T12:35:06.107Z,84.89
2022-11-03T12:37:34.267Z,83.81
2022-11-03T12:40:02.467Z,84.54
2022-11-03T12:42:32.136Z,84.81
2022-11-03T12:45:00.263Z,84.85
2022-11-03T12:47:28.504Z,83.29
2022-11-03T12:49:56.607Z,80.96
2022-11-03T12:52:24.763Z,79.35
2022-11-03T12:54:52.885Z,79.11
2022-11-03T12:57:21.227Z,79.56
2022-11-03T12:59:51.578Z,78.82
2022-11-03T13:02:19.872Z,79.05
2022-11-03T13:04:48.073Z,78.17
2022-11-03T13:07:20.390Z,78.90
2022-11-03T13:09:52.377Z,79.32
2022-11-03T13:12:32.576Z,80.67
2022-11-03T13:15:03.175Z,81.35
2022-11-03T13:17:40.196Z,82.17
2022-11-03T13:20:16.432Z,82.94
2022-11-03T13:22:44.774Z,83.29
2022-11-03T13:25:12.921Z,82.86
2022-11-03T13:27:41.245Z,83.29
2022-11-03T13:30:12.243Z,84.19
2022-11-03T13:32:40.333Z,86.13
2022-11-03T13:35:13.720Z,86.79
2022-11-03T13:37:42.716Z,88.99
2022-11-03T13:40:29.444Z,89.65
2022-11-03T13:43:00.507Z,91.04
2022-11-03T13:45:30.415Z,93.15
2022-11-03T13:50:47.046Z,94.15
2022-11-03T13:56:08.610Z,96.80
2022-11-03T14:01:27.356Z,99.37
2022-11-03T14:06:43.904Z,100.00
2022-11-03T14:09:12.063Z,100.00
2022-11-03T14:11:57.703Z,100.00
2022-11-03T14:14:25.823Z,100.00
2022-11-03T14:16:55.408Z,100.00
2022-11-03T14:19:30.803Z,100.00
2022-11-03T14:22:01.725Z,100.00
2022-11-03T14:24:29.892Z,100.00
2022-11-03T14:26:58.005Z,100.00
2022-11-03T14:29:27.222Z,100.00
2022-11-03T14:31:56.774Z,100.00
2022-11-03T14:34:25.012Z,100.00
2022-11-03T14:36:53.344Z,100.00
2022-11-03T14:39:21.854Z,100.00
2022-11-03T14:42:05.383Z,100.00
2022-11-03T14:44:34.394Z,100.00
2022-11-03T14:47:05.053Z,100.00
2022-11-03T14:49:33.975Z,100.00
2022-11-03T14:52:02.925Z,100.00
2022-11-03T14:54:31.798Z,100.00
2022-11-03T14:57:00.295Z,100.00
2022-11-03T14:59:28.443Z,100.00
2022-11-03T15:01:56.981Z,100.00
2022-11-03T15:04:27.136Z,100.00
2022-11-03T15:06:55.793Z,100.00
2022-11-03T15:09:24.134Z,100.00
2022-11-03T15:11:52.239Z,100.00
2022-11-03T15:14:20.567Z,100.00
2022-11-03T15:16:49.161Z,100.00
2022-11-03T15:19:17.503Z,100.00
2022-11-03T15:21:47.063Z,100.00
2022-11-03T15:27:03.367Z,100.00
2022-11-03T15:29:31.508Z,100.00
2022-11-03T15:31:59.698Z,100.00
2022-11-03T15:34:27.825Z,100.00
2022-11-03T15:36:58.822Z,100.00
2022-11-03T15:39:29.917Z,100.00
2022-11-03T15:42:00.704Z,100.00
2022-11-03T15:44:28.953Z,100.00
2022-11-03T15:46:57.888Z,100.00
2022-11-03T15:49:26.207Z,100.00
2022-11-03T15:51:54.303Z,100.00
2022-11-03T15:54:24.012Z,100.00
2022-11-03T15:56:52.315Z,100.00
2022-11-03T15:59:20.818Z,100.00
2022-11-03T16:01:49.447Z,100.00
2022-11-03T16:04:17.787Z,100.00
2022-11-03T16:07:06.656Z,100.00
2022-11-03T16:09:35.535Z,100.00
2022-11-03T16:12:03.708Z,100.00
2022-11-03T16:14:31.913Z,100.00
2022-11-03T16:17:00.104Z,100.00
2022-11-03T16:19:28.335Z,100.00
2022-11-03T16:21:56.484Z,100.00
2022-11-03T16:24:29.666Z,100.00
2022-11-03T16:27:05.144Z,100.00
2022-11-03T16:29:33.277Z,100.00
2022-11-03T16:32:01.474Z,100.00
2022-11-03T16:34:29.628Z,100.00
2022-11-03T16:36:57.917Z,100.00
2022-11-03T16:39:26.052Z,100.00
2022-11-03T16:41:55.397Z,100.00
2022-11-03T16:44:25.084Z,100.00
2022-11-03T16:46:53.315Z,100.00
2022-11-03T16:49:21.554Z,100.00
2022-11-03T16:51:49.805Z,100.00
2022-11-03T16:54:17.972Z,100.00
2022-11-03T16:56:50.582Z,100.00
2022-11-03T16:59:24.502Z,100.00
2022-11-03T17:01:54.349Z,100.00
2022-11-03T17:04:22.695Z,100.00
2022-11-03T17:06:50.850Z,100.00
2022-11-03T17:09:19.015Z,100.00
2022-11-03T17:11:47.405Z,100.00
2022-11-03T17:14:15.831Z,100.00
2022-11-03T17:16:46.761Z,100.00
2022-11-03T17:19:16.725Z,100.00
2022-11-03T17:21:45.304Z,100.00
2022-11-03T17:24:13.759Z,100.00
2022-11-03T17:26:51.501Z,100.00
2022-11-03T17:29:21.524Z,100.00
2022-11-03T17:31:51.028Z,100.00
2022-11-03T17:34:24.814Z,100.00
2022-11-03T17:36:54.136Z,100.00
2022-11-03T17:39:29.456Z,100.00
2022-11-03T17:42:03.434Z,100.00
2022-11-03T17:44:32.132Z,100.00
2022-11-03T17:47:00.384Z,100.00
2022-11-03T17:49:30.044Z,100.00
2022-11-03T17:51:59.573Z,100.00
2022-11-03T17:54:29.623Z,100.00
2022-11-03T17:56:58.175Z,100.00
2022-11-03T17:59:26.524Z,100.00
2022-11-03T18:01:55.886Z,100.00
2022-11-03T18:04:24.677Z,100.00
2022-11-03T18:06:54.382Z,100.00
2022-11-03T18:09:23.184Z,100.00
2022-11-03T18:12:08.815Z,100.00
2022-11-03T18:14:36.967Z,100.00
2022-11-03T18:17:05.184Z,100.00
2022-11-03T18:19:33.406Z,100.00
2022-11-03T18:22:03.093Z,100.00
2022-11-03T18:24:34.533Z,100.00
2022-11-03T18:27:02.746Z,100.00
2022-11-03T18:29:31.024Z,100.00
2022-11-03T18:32:01.232Z,100.00
2022-11-03T18:34:29.704Z,100.00
2022-11-03T18:36:58.046Z,100.00
2022-11-03T18:39:30.677Z,100.00
2022-11-03T18:41:58.903Z,100.00
2022-11-03T18:44:29.255Z,100.00
2022-11-03T18:46:58.214Z,100.00
2022-11-03T18:49:27.611Z,100.00
2022-11-03T18:52:02.817Z,100.00
2022-11-03T18:54:34.728Z,100.00
2022-11-03T18:57:03.254Z,100.00
2022-11-03T18:59:33.183Z,100.00
2022-11-03T19:02:01.586Z,100.00
2022-11-03T19:04:32.045Z,100.00
2022-11-03T19:07:00.644Z,100.00
2022-11-03T19:09:28.884Z,100.00
2022-11-03T19:11:59.214Z,100.00
2022-11-03T19:14:31.544Z,100.00
2022-11-03T19:17:21.760Z,100.00
2022-11-03T19:19:48.165Z,100.00
2022-11-03T19:22:18.155Z,100.00
2022-11-03T19:24:46.754Z,100.00
2022-11-03T19:27:18.905Z,100.00
2022-11-03T19:29:47.536Z,100.00
2022-11-03T19:32:20.392Z,100.00
2022-11-03T19:34:51.548Z,100.00
2022-11-03T19:37:19.711Z,100.00
2022-11-03T19:39:48.614Z,100.00
2022-11-03T19:42:33.227Z,100.00
2022-11-03T19:45:02.958Z,100.00
2022-11-03T19:47:34.864Z,100.00
2022-11-03T19:50:04.704Z,100.00
2022-11-03T19:52:33.320Z,100.00
2022-11-03T19:55:05.785Z,100.00
2022-11-03T19:57:35.324Z,100.00
2022-11-03T20:00:03.549Z,100.00
2022-11-03T20:02:31.822Z,100.00
2022-11-03T20:05:00.311Z,100.00
2022-11-03T20:07:31.902Z,100.00
2022-11-03T20:10:01.496Z,100.00
2022-11-03T20:12:30.952Z,100.00
2022-11-03T20:15:00.474Z,100.00
2022-11-03T20:17:28.716Z,100.00
2022-11-03T20:19:57.221Z,100.00
2022-11-03T20:22:29.333Z,100.00
2022-11-03T20:24:59.523Z,100.00
2022-11-03T20:27:27.752Z,100.00
2022-11-03T20:29:56.198Z,100.00
2022-11-03T20:32:25.777Z,100.00
2022-11-03T20:34:54.044Z,100.00
2022-11-03T20:37:22.303Z,100.00
2022-11-03T20:39:50.963Z,100.00
2022-11-03T20:42:21.825Z,100.00
2022-11-03T20:44:50.126Z,100.00
2022-11-03T20:47:18.693Z,100.00
2022-11-03T20:49:48.694Z,100.00
2022-11-03T20:52:17.256Z,100.00
2022-11-03T20:54:46.341Z,100.00
2022-11-03T20:57:14.966Z,100.00
2022-11-03T20:59:43.113Z,100.00
2022-11-03T21:02:12.539Z,100.00
2022-11-03T21:04:41.100Z,100.00
2022-11-03T21:07:13.548Z,100.00
2022-11-03T21:09:41.777Z,100.00
2022-11-03T21:12:13.073Z,100.00
2022-11-03T21:15:03.233Z,100.00
2022-11-03T21:17:45.844Z,100.00
2022-11-03T21:20:14.044Z,100.00
2022-11-03T21:22:53.305Z,100.00
2022-11-03T21:25:23.539Z,100.00
2022-11-03T21:27:52.404Z,100.00
2022-11-03T21:30:21.055Z,100.00
2022-11-03T21:32:49.264Z,100.00
2022-11-03T21:35:19.417Z,100.00
2022-11-03T21:37:49.144Z,100.00
2022-11-03T21:40:17.813Z,100.00
2022-11-03T21:43:03.290Z,100.00
2022-11-03T21:45:31.454Z,100.00
2022-11-03T21:48:17.238Z,100.00
2022-11-03T21:50:46.456Z,100.00
2022-11-03T21:53:16.024Z,100.00
2022-11-03T21:55:44.245Z,100.00
2022-11-03T21:58:12.544Z,100.00
2022-11-03T22:00:40.845Z,100.00
2022-11-03T22:03:09.161Z,100.00
2022-11-03T22:05:38.404Z,100.00
2022-11-03T22:08:08.584Z,100.00
2022-11-03T22:10:40.924Z,100.00
2022-11-03T22:13:10.030Z,100.00
2022-11-03T22:15:56.089Z,100.00
2022-11-03T22:18:24.776Z,100.00
2022-11-03T22:21:10.922Z,100.00
2022-11-03T22:24:08.145Z,100.00
2022-11-03T22:26:52.025Z,100.00
2022-11-03T22:29:37.573Z,100.00
2022-11-03T22:32:07.094Z,100.00
2022-11-03T22:34:52.637Z,100.00
2022-11-03T22:37:21.060Z,100.00
2022-11-03T22:40:06.683Z,100.00
2022-11-03T22:42:53.914Z,100.00
2022-11-03T22:45:39.664Z,100.00
2022-11-03T22:48:08.213Z,100.00
2022-11-03T22:50:36.309Z,100.00
2022-11-03T22:53:25.269Z,100.00
2022-11-03T22:55:52.677Z,100.00
2022-11-03T22:58:24.337Z,100.00
2022-11-03T23:00:56.215Z,100.00
2022-11-03T23:03:24.327Z,100.00
2022-11-03T23:05:52.478Z,100.00
2022-11-03T23:08:20.651Z,100.00
2022-11-03T23:10:48.868Z,100.00
2022-11-03T23:13:17.288Z,100.00
2022-11-03T23:15:46.828Z,100.00
2022-11-03T23:18:37.528Z,100.00
2022-11-03T23:21:08.592Z,100.00
2022-11-03T23:23:54.848Z,100.00
2022-11-03T23:26:24.006Z,100.00
2022-11-03T23:28:52.386Z,100.00
2022-11-03T23:31:21.898Z,100.00
2022-11-03T23:33:50.084Z,100.00
2022-11-03T23:36:18.757Z,100.00
2022-11-03T23:38:47.387Z,100.00
2022-11-03T23:41:16.814Z,100.00
2022-11-03T23:43:46.482Z,100.00
2022-11-03T23:46:34.227Z,100.00
2022-11-03T23:49:04.058Z,100.00
2022-11-03T23:51:33.146Z,100.00
2022-11-03T23:54:01.830Z,100.00
2022-11-03T23:56:49.718Z,100.00
2022-11-03T23:59:18.265Z,100.00
